Terminal Aerodrome Forecast
Issued by NWS

Home | Current Version | Previous Version | Text Only | Print | Product List | Glossary On
Versions: 1 2 3 4 5 6 7 8 9 10 11 12
000
FTUS45 KABQ 060537
TAFGUP
TAF
KGUP 060537Z 0606/0706 22007KT P6SM VCSH SCT050 BKN080
     FM060800 21006KT P6SM SCT030 BKN100
     FM061500 23012KT P6SM SCT070 SCT150
     FM062000 26012KT P6SM VCTS BKN070CB BKN150
      TEMPO 0621/0624 VRB15G25KT=

USA.gov is the U.S. government's official web portal to all federal, state and local government web resources and services.